sensor_id;sensor_type;location;lat;lon;timestamp;P1;durP1;ratioP1;P2;durP2;ratioP2
75941;SDS011;64622;46.220;19.878;2024-03-07T00:00:29;10.20;;;3.72;;
75941;SDS011;64622;46.220;19.878;2024-03-07T00:02:56;12.73;;;3.97;;
75941;SDS011;64622;46.220;19.878;2024-03-07T00:05:22;10.07;;;4.25;;
75941;SDS011;64622;46.220;19.878;2024-03-07T00:07:50;11.77;;;4.73;;
75941;SDS011;64622;46.220;19.878;2024-03-07T00:10:17;12.25;;;4.93;;
75941;SDS011;64622;46.220;19.878;2024-03-07T00:12:43;10.23;;;4.00;;
75941;SDS011;64622;46.220;19.878;2024-03-07T00:15:11;13.45;;;6.10;;
75941;SDS011;64622;46.220;19.878;2024-03-07T00:17:39;15.55;;;7.80;;
75941;SDS011;64622;46.220;19.878;2024-03-07T00:20:07;17.17;;;8.43;;
75941;SDS011;64622;46.220;19.878;2024-03-07T00:22:43;14.00;;;6.40;;
75941;SDS011;64622;46.220;19.878;2024-03-07T00:25:10;12.35;;;4.95;;
75941;SDS011;64622;46.220;19.878;2024-03-07T00:27:37;11.05;;;4.60;;
75941;SDS011;64622;46.220;19.878;2024-03-07T00:30:07;11.48;;;4.25;;
75941;SDS011;64622;46.220;19.878;2024-03-07T00:32:39;12.40;;;4.57;;
75941;SDS011;64622;46.220;19.878;2024-03-07T00:35:06;10.63;;;3.83;;
75941;SDS011;64622;46.220;19.878;2024-03-07T00:37:34;13.70;;;4.90;;
75941;SDS011;64622;46.220;19.878;2024-03-07T00:40:02;11.85;;;4.57;;
75941;SDS011;64622;46.220;19.878;2024-03-07T00:42:29;9.55;;;3.80;;
75941;SDS011;64622;46.220;19.878;2024-03-07T00:44:56;11.17;;;4.60;;
75941;SDS011;64622;46.220;19.878;2024-03-07T00:47:22;10.35;;;4.28;;
75941;SDS011;64622;46.220;19.878;2024-03-07T00:49:49;10.85;;;4.50;;
75941;SDS011;64622;46.220;19.878;2024-03-07T00:52:16;11.68;;;4.55;;
75941;SDS011;64622;46.220;19.878;2024-03-07T00:54:42;14.05;;;5.15;;
75941;SDS011;64622;46.220;19.878;2024-03-07T00:57:09;11.77;;;4.57;;
75941;SDS011;64622;46.220;19.878;2024-03-07T00:59:36;10.98;;;4.85;;
75941;SDS011;64622;46.220;19.878;2024-03-07T01:02:02;13.07;;;5.22;;
75941;SDS011;64622;46.220;19.878;2024-03-07T01:04:30;11.38;;;5.03;;
75941;SDS011;64622;46.220;19.878;2024-03-07T01:07:00;14.80;;;5.80;;
75941;SDS011;64622;46.220;19.878;2024-03-07T01:09:27;12.67;;;5.33;;
75941;SDS011;64622;46.220;19.878;2024-03-07T01:11:57;15.18;;;6.18;;
75941;SDS011;64622;46.220;19.878;2024-03-07T01:14:25;13.98;;;5.82;;
75941;SDS011;64622;46.220;19.878;2024-03-07T01:16:52;14.48;;;6.18;;
75941;SDS011;64622;46.220;19.878;2024-03-07T01:19:20;13.07;;;5.60;;
75941;SDS011;64622;46.220;19.878;2024-03-07T01:21:46;12.87;;;5.53;;
75941;SDS011;64622;46.220;19.878;2024-03-07T01:24:13;15.30;;;6.03;;
75941;SDS011;64622;46.220;19.878;2024-03-07T01:26:44;12.30;;;5.68;;
75941;SDS011;64622;46.220;19.878;2024-03-07T01:29:11;14.65;;;6.53;;
75941;SDS011;64622;46.220;19.878;2024-03-07T01:31:37;14.45;;;5.80;;
75941;SDS011;64622;46.220;19.878;2024-03-07T01:34:04;15.50;;;6.33;;
75941;SDS011;64622;46.220;19.878;2024-03-07T01:36:30;15.05;;;6.22;;
75941;SDS011;64622;46.220;19.878;2024-03-07T01:38:57;16.37;;;7.60;;
75941;SDS011;64622;46.220;19.878;2024-03-07T01:41:24;14.23;;;6.00;;
75941;SDS011;64622;46.220;19.878;2024-03-07T01:43:50;13.02;;;5.93;;
75941;SDS011;64622;46.220;19.878;2024-03-07T01:46:17;14.33;;;6.03;;
75941;SDS011;64622;46.220;19.878;2024-03-07T01:48:44;16.15;;;6.32;;
75941;SDS011;64622;46.220;19.878;2024-03-07T01:51:10;15.63;;;6.65;;
75941;SDS011;64622;46.220;19.878;2024-03-07T01:53:37;14.98;;;6.15;;
75941;SDS011;64622;46.220;19.878;2024-03-07T01:56:04;15.90;;;7.07;;
75941;SDS011;64622;46.220;19.878;2024-03-07T01:58:32;18.10;;;6.50;;
75941;SDS011;64622;46.220;19.878;2024-03-07T02:01:00;16.48;;;7.00;;
75941;SDS011;64622;46.220;19.878;2024-03-07T02:03:28;18.98;;;7.28;;
75941;SDS011;64622;46.220;19.878;2024-03-07T02:05:55;16.58;;;6.72;;
75941;SDS011;64622;46.220;19.878;2024-03-07T02:08:22;16.42;;;6.93;;
75941;SDS011;64622;46.220;19.878;2024-03-07T02:10:49;14.67;;;6.37;;
75941;SDS011;64622;46.220;19.878;2024-03-07T02:13:15;16.67;;;5.78;;
75941;SDS011;64622;46.220;19.878;2024-03-07T02:15:42;16.23;;;6.62;;
75941;SDS011;64622;46.220;19.878;2024-03-07T02:18:09;14.18;;;5.82;;
75941;SDS011;64622;46.220;19.878;2024-03-07T02:20:36;14.82;;;6.35;;
75941;SDS011;64622;46.220;19.878;2024-03-07T02:23:03;16.77;;;6.97;;
75941;SDS011;64622;46.220;19.878;2024-03-07T02:25:30;15.90;;;6.43;;
75941;SDS011;64622;46.220;19.878;2024-03-07T02:27:58;15.60;;;6.50;;
75941;SDS011;64622;46.220;19.878;2024-03-07T02:30:24;15.43;;;6.70;;
75941;SDS011;64622;46.220;19.878;2024-03-07T02:32:51;15.10;;;6.20;;
75941;SDS011;64622;46.220;19.878;2024-03-07T02:35:20;16.33;;;6.70;;
75941;SDS011;64622;46.220;19.878;2024-03-07T02:37:47;15.50;;;6.68;;
75941;SDS011;64622;46.220;19.878;2024-03-07T02:40:14;17.87;;;7.47;;
75941;SDS011;64622;46.220;19.878;2024-03-07T02:42:42;13.98;;;6.12;;
75941;SDS011;64622;46.220;19.878;2024-03-07T02:45:09;16.25;;;6.70;;
75941;SDS011;64622;46.220;19.878;2024-03-07T02:47:39;17.77;;;7.60;;
75941;SDS011;64622;46.220;19.878;2024-03-07T02:50:08;19.58;;;7.43;;
75941;SDS011;64622;46.220;19.878;2024-03-07T02:52:35;16.52;;;7.10;;
75941;SDS011;64622;46.220;19.878;2024-03-07T02:55:02;17.00;;;7.20;;
75941;SDS011;64622;46.220;19.878;2024-03-07T02:57:31;19.80;;;6.95;;
75941;SDS011;64622;46.220;19.878;2024-03-07T02:59:58;15.97;;;7.57;;
75941;SDS011;64622;46.220;19.878;2024-03-07T03:02:24;22.60;;;7.80;;
75941;SDS011;64622;46.220;19.878;2024-03-07T03:04:51;17.30;;;7.75;;
75941;SDS011;64622;46.220;19.878;2024-03-07T03:07:17;19.08;;;6.75;;
75941;SDS011;64622;46.220;19.878;2024-03-07T03:09:44;18.95;;;7.78;;
75941;SDS011;64622;46.220;19.878;2024-03-07T03:12:11;16.20;;;6.97;;
75941;SDS011;64622;46.220;19.878;2024-03-07T03:14:38;15.38;;;7.20;;
75941;SDS011;64622;46.220;19.878;2024-03-07T03:17:05;17.05;;;7.60;;
75941;SDS011;64622;46.220;19.878;2024-03-07T03:19:34;17.55;;;7.65;;
75941;SDS011;64622;46.220;19.878;2024-03-07T03:22:02;19.15;;;7.30;;
75941;SDS011;64622;46.220;19.878;2024-03-07T03:24:30;18.93;;;6.63;;
75941;SDS011;64622;46.220;19.878;2024-03-07T03:26:57;20.27;;;7.93;;
75941;SDS011;64622;46.220;19.878;2024-03-07T03:29:23;18.45;;;7.30;;
75941;SDS011;64622;46.220;19.878;2024-03-07T03:31:50;18.50;;;7.85;;
75941;SDS011;64622;46.220;19.878;2024-03-07T03:34:16;16.60;;;7.37;;
75941;SDS011;64622;46.220;19.878;2024-03-07T03:36:43;18.53;;;8.80;;
75941;SDS011;64622;46.220;19.878;2024-03-07T03:39:10;21.12;;;8.88;;
75941;SDS011;64622;46.220;19.878;2024-03-07T03:41:39;18.85;;;8.68;;
75941;SDS011;64622;46.220;19.878;2024-03-07T03:44:06;20.80;;;9.20;;
75941;SDS011;64622;46.220;19.878;2024-03-07T03:46:33;19.20;;;8.48;;
75941;SDS011;64622;46.220;19.878;2024-03-07T03:49:00;19.90;;;8.90;;
75941;SDS011;64622;46.220;19.878;2024-03-07T03:51:26;21.95;;;9.70;;
75941;SDS011;64622;46.220;19.878;2024-03-07T03:53:53;24.08;;;10.43;;
75941;SDS011;64622;46.220;19.878;2024-03-07T03:56:19;23.48;;;9.27;;
75941;SDS011;64622;46.220;19.878;2024-03-07T03:58:46;20.48;;;9.25;;
75941;SDS011;64622;46.220;19.878;2024-03-07T04:01:13;21.57;;;8.50;;
75941;SDS011;64622;46.220;19.878;2024-03-07T04:03:41;21.75;;;9.70;;
75941;SDS011;64622;46.220;19.878;2024-03-07T04:06:07;23.38;;;10.07;;
75941;SDS011;64622;46.220;19.878;2024-03-07T04:08:34;30.48;;;10.60;;
75941;SDS011;64622;46.220;19.878;2024-03-07T04:11:03;20.73;;;9.70;;
75941;SDS011;64622;46.220;19.878;2024-03-07T04:13:30;26.63;;;10.73;;
75941;SDS011;64622;46.220;19.878;2024-03-07T04:15:57;24.73;;;10.60;;
75941;SDS011;64622;46.220;19.878;2024-03-07T04:18:25;24.15;;;10.27;;
75941;SDS011;64622;46.220;19.878;2024-03-07T04:20:52;24.67;;;10.05;;
75941;SDS011;64622;46.220;19.878;2024-03-07T04:23:20;25.45;;;10.57;;
75941;SDS011;64622;46.220;19.878;2024-03-07T04:25:47;29.07;;;11.93;;
75941;SDS011;64622;46.220;19.878;2024-03-07T04:28:13;24.50;;;11.27;;
75941;SDS011;64622;46.220;19.878;2024-03-07T04:30:40;25.67;;;10.52;;
75941;SDS011;64622;46.220;19.878;2024-03-07T04:33:09;24.10;;;10.20;;
75941;SDS011;64622;46.220;19.878;2024-03-07T04:35:35;28.02;;;11.40;;
75941;SDS011;64622;46.220;19.878;2024-03-07T04:38:02;29.43;;;11.17;;
75941;SDS011;64622;46.220;19.878;2024-03-07T04:40:29;22.98;;;9.65;;
75941;SDS011;64622;46.220;19.878;2024-03-07T04:42:56;28.00;;;11.57;;
75941;SDS011;64622;46.220;19.878;2024-03-07T04:45:22;25.25;;;11.18;;
75941;SDS011;64622;46.220;19.878;2024-03-07T04:47:49;21.52;;;9.85;;
75941;SDS011;64622;46.220;19.878;2024-03-07T04:50:16;30.87;;;10.90;;
75941;SDS011;64622;46.220;19.878;2024-03-07T04:52:45;25.12;;;10.48;;
75941;SDS011;64622;46.220;19.878;2024-03-07T04:55:13;23.35;;;10.73;;
75941;SDS011;64622;46.220;19.878;2024-03-07T04:57:39;31.10;;;11.75;;
75941;SDS011;64622;46.220;19.878;2024-03-07T05:00:07;32.08;;;11.98;;
75941;SDS011;64622;46.220;19.878;2024-03-07T05:02:43;25.43;;;10.13;;
75941;SDS011;64622;46.220;19.878;2024-03-07T05:05:11;27.83;;;12.25;;
75941;SDS011;64622;46.220;19.878;2024-03-07T05:07:39;26.40;;;11.70;;
75941;SDS011;64622;46.220;19.878;2024-03-07T05:10:06;32.42;;;12.45;;
75941;SDS011;64622;46.220;19.878;2024-03-07T05:12:34;33.75;;;13.77;;
75941;SDS011;64622;46.220;19.878;2024-03-07T05:15:01;28.77;;;12.07;;
75941;SDS011;64622;46.220;19.878;2024-03-07T05:17:30;28.42;;;12.27;;
75941;SDS011;64622;46.220;19.878;2024-03-07T05:20:00;31.42;;;11.18;;
75941;SDS011;64622;46.220;19.878;2024-03-07T05:22:27;28.50;;;11.77;;
75941;SDS011;64622;46.220;19.878;2024-03-07T05:24:56;36.00;;;13.43;;
75941;SDS011;64622;46.220;19.878;2024-03-07T05:27:24;25.23;;;11.00;;
75941;SDS011;64622;46.220;19.878;2024-03-07T05:29:51;30.50;;;13.15;;
75941;SDS011;64622;46.220;19.878;2024-03-07T05:32:19;30.50;;;11.73;;
75941;SDS011;64622;46.220;19.878;2024-03-07T05:34:50;32.50;;;13.02;;
75941;SDS011;64622;46.220;19.878;2024-03-07T05:37:17;30.42;;;12.73;;
75941;SDS011;64622;46.220;19.878;2024-03-07T05:39:44;28.57;;;11.07;;
75941;SDS011;64622;46.220;19.878;2024-03-07T05:42:11;26.52;;;11.45;;
75941;SDS011;64622;46.220;19.878;2024-03-07T05:44:40;30.02;;;12.50;;
75941;SDS011;64622;46.220;19.878;2024-03-07T05:47:08;38.40;;;14.13;;
75941;SDS011;64622;46.220;19.878;2024-03-07T05:49:35;30.20;;;12.25;;
75941;SDS011;64622;46.220;19.878;2024-03-07T05:52:03;30.07;;;12.67;;
75941;SDS011;64622;46.220;19.878;2024-03-07T05:54:32;31.20;;;13.02;;
75941;SDS011;64622;46.220;19.878;2024-03-07T05:56:59;29.77;;;12.07;;
75941;SDS011;64622;46.220;19.878;2024-03-07T05:59:26;28.05;;;11.63;;
75941;SDS011;64622;46.220;19.878;2024-03-07T06:01:57;25.33;;;10.27;;
75941;SDS011;64622;46.220;19.878;2024-03-07T06:04:24;30.67;;;12.60;;
75941;SDS011;64622;46.220;19.878;2024-03-07T06:06:51;29.52;;;11.48;;
75941;SDS011;64622;46.220;19.878;2024-03-07T06:09:18;30.85;;;12.48;;
75941;SDS011;64622;46.220;19.878;2024-03-07T06:11:48;30.90;;;12.70;;
75941;SDS011;64622;46.220;19.878;2024-03-07T06:14:15;31.15;;;12.65;;
75941;SDS011;64622;46.220;19.878;2024-03-07T06:16:42;32.53;;;12.67;;
75941;SDS011;64622;46.220;19.878;2024-03-07T06:19:09;23.10;;;9.40;;
75941;SDS011;64622;46.220;19.878;2024-03-07T06:21:36;24.42;;;10.82;;
75941;SDS011;64622;46.220;19.878;2024-03-07T06:24:07;26.17;;;11.98;;
75941;SDS011;64622;46.220;19.878;2024-03-07T06:26:36;31.52;;;13.05;;
75941;SDS011;64622;46.220;19.878;2024-03-07T06:29:10;25.70;;;11.70;;
75941;SDS011;64622;46.220;19.878;2024-03-07T06:31:38;27.08;;;12.65;;
75941;SDS011;64622;46.220;19.878;2024-03-07T06:34:04;28.30;;;11.80;;
75941;SDS011;64622;46.220;19.878;2024-03-07T06:36:31;30.55;;;12.60;;
75941;SDS011;64622;46.220;19.878;2024-03-07T06:38:59;28.73;;;12.65;;
75941;SDS011;64622;46.220;19.878;2024-03-07T06:41:25;26.43;;;11.60;;
75941;SDS011;64622;46.220;19.878;2024-03-07T06:43:52;23.58;;;9.93;;
75941;SDS011;64622;46.220;19.878;2024-03-07T06:46:21;30.80;;;11.57;;
75941;SDS011;64622;46.220;19.878;2024-03-07T06:48:48;29.30;;;12.45;;
75941;SDS011;64622;46.220;19.878;2024-03-07T06:51:14;24.27;;;11.55;;
75941;SDS011;64622;46.220;19.878;2024-03-07T06:53:41;25.57;;;11.67;;
75941;SDS011;64622;46.220;19.878;2024-03-07T06:56:07;25.17;;;11.60;;
75941;SDS011;64622;46.220;19.878;2024-03-07T06:58:38;22.42;;;10.20;;
75941;SDS011;64622;46.220;19.878;2024-03-07T07:01:06;23.98;;;10.05;;
75941;SDS011;64622;46.220;19.878;2024-03-07T07:03:36;23.33;;;9.98;;
75941;SDS011;64622;46.220;19.878;2024-03-07T07:06:03;26.30;;;11.57;;
75941;SDS011;64622;46.220;19.878;2024-03-07T07:08:33;21.52;;;9.32;;
75941;SDS011;64622;46.220;19.878;2024-03-07T07:11:00;24.08;;;11.25;;
75941;SDS011;64622;46.220;19.878;2024-03-07T07:13:27;25.65;;;10.15;;
75941;SDS011;64622;46.220;19.878;2024-03-07T07:15:53;22.90;;;10.65;;
75941;SDS011;64622;46.220;19.878;2024-03-07T07:18:20;19.63;;;9.17;;
75941;SDS011;64622;46.220;19.878;2024-03-07T07:20:48;22.65;;;10.07;;
75941;SDS011;64622;46.220;19.878;2024-03-07T07:23:15;19.42;;;9.15;;
75941;SDS011;64622;46.220;19.878;2024-03-07T07:25:42;16.98;;;8.05;;
75941;SDS011;64622;46.220;19.878;2024-03-07T07:28:09;20.05;;;8.75;;
75941;SDS011;64622;46.220;19.878;2024-03-07T07:30:36;21.00;;;9.07;;
75941;SDS011;64622;46.220;19.878;2024-03-07T07:33:03;19.23;;;8.57;;
75941;SDS011;64622;46.220;19.878;2024-03-07T07:35:30;22.05;;;10.07;;
75941;SDS011;64622;46.220;19.878;2024-03-07T07:37:57;22.35;;;9.40;;
75941;SDS011;64622;46.220;19.878;2024-03-07T07:40:24;22.83;;;9.67;;
75941;SDS011;64622;46.220;19.878;2024-03-07T07:42:53;21.92;;;9.25;;
75941;SDS011;64622;46.220;19.878;2024-03-07T07:45:21;20.52;;;9.05;;
75941;SDS011;64622;46.220;19.878;2024-03-07T07:47:49;17.67;;;7.68;;
75941;SDS011;64622;46.220;19.878;2024-03-07T07:50:17;17.50;;;8.40;;
75941;SDS011;64622;46.220;19.878;2024-03-07T07:52:46;20.90;;;11.27;;
75941;SDS011;64622;46.220;19.878;2024-03-07T07:55:14;20.73;;;9.85;;
75941;SDS011;64622;46.220;19.878;2024-03-07T07:57:42;19.17;;;8.57;;
75941;SDS011;64622;46.220;19.878;2024-03-07T08:00:11;18.55;;;9.35;;
75941;SDS011;64622;46.220;19.878;2024-03-07T08:02:38;19.33;;;9.95;;
75941;SDS011;64622;46.220;19.878;2024-03-07T08:05:05;18.07;;;8.63;;
75941;SDS011;64622;46.220;19.878;2024-03-07T08:07:31;19.17;;;8.80;;
75941;SDS011;64622;46.220;19.878;2024-03-07T08:09:58;18.55;;;8.13;;
75941;SDS011;64622;46.220;19.878;2024-03-07T08:12:25;18.10;;;8.55;;
75941;SDS011;64622;46.220;19.878;2024-03-07T08:14:51;18.15;;;8.75;;
75941;SDS011;64622;46.220;19.878;2024-03-07T08:17:18;18.50;;;8.47;;
75941;SDS011;64622;46.220;19.878;2024-03-07T08:19:46;19.17;;;9.40;;
75941;SDS011;64622;46.220;19.878;2024-03-07T08:22:14;19.60;;;8.40;;
75941;SDS011;64622;46.220;19.878;2024-03-07T08:24:41;21.37;;;8.90;;
75941;SDS011;64622;46.220;19.878;2024-03-07T08:27:10;19.15;;;10.05;;
75941;SDS011;64622;46.220;19.878;2024-03-07T08:29:37;19.17;;;9.60;;
75941;SDS011;64622;46.220;19.878;2024-03-07T08:32:05;18.77;;;9.00;;
75941;SDS011;64622;46.220;19.878;2024-03-07T08:34:32;20.17;;;8.98;;
75941;SDS011;64622;46.220;19.878;2024-03-07T08:36:59;18.08;;;8.18;;
75941;SDS011;64622;46.220;19.878;2024-03-07T08:39:26;17.60;;;8.43;;
75941;SDS011;64622;46.220;19.878;2024-03-07T08:41:52;18.27;;;8.70;;
75941;SDS011;64622;46.220;19.878;2024-03-07T08:44:19;21.00;;;8.52;;
75941;SDS011;64622;46.220;19.878;2024-03-07T08:46:45;18.42;;;9.32;;
75941;SDS011;64622;46.220;19.878;2024-03-07T08:49:12;20.67;;;8.98;;
75941;SDS011;64622;46.220;19.878;2024-03-07T08:51:42;20.00;;;9.77;;
75941;SDS011;64622;46.220;19.878;2024-03-07T08:54:10;18.23;;;8.63;;
75941;SDS011;64622;46.220;19.878;2024-03-07T08:56:37;21.25;;;9.20;;
75941;SDS011;64622;46.220;19.878;2024-03-07T08:59:03;19.98;;;10.63;;
75941;SDS011;64622;46.220;19.878;2024-03-07T09:01:30;20.12;;;10.57;;
75941;SDS011;64622;46.220;19.878;2024-03-07T09:03:57;22.98;;;9.60;;
75941;SDS011;64622;46.220;19.878;2024-03-07T09:06:25;21.37;;;10.50;;
75941;SDS011;64622;46.220;19.878;2024-03-07T09:08:51;19.85;;;9.82;;
75941;SDS011;64622;46.220;19.878;2024-03-07T09:11:18;18.92;;;10.35;;
75941;SDS011;64622;46.220;19.878;2024-03-07T09:13:45;18.55;;;8.35;;
75941;SDS011;64622;46.220;19.878;2024-03-07T09:16:12;17.73;;;9.95;;
75941;SDS011;64622;46.220;19.878;2024-03-07T09:18:39;24.93;;;12.20;;
75941;SDS011;64622;46.220;19.878;2024-03-07T09:21:05;29.33;;;14.13;;
75941;SDS011;64622;46.220;19.878;2024-03-07T09:23:32;42.40;;;21.12;;
75941;SDS011;64622;46.220;19.878;2024-03-07T09:25:59;26.65;;;12.50;;
75941;SDS011;64622;46.220;19.878;2024-03-07T09:28:25;23.55;;;11.38;;
75941;SDS011;64622;46.220;19.878;2024-03-07T09:30:52;24.77;;;11.50;;
75941;SDS011;64622;46.220;19.878;2024-03-07T09:33:18;19.90;;;10.35;;
75941;SDS011;64622;46.220;19.878;2024-03-07T09:35:45;25.33;;;12.48;;
75941;SDS011;64622;46.220;19.878;2024-03-07T09:38:11;18.60;;;9.93;;
75941;SDS011;64622;46.220;19.878;2024-03-07T09:40:38;18.05;;;9.38;;
75941;SDS011;64622;46.220;19.878;2024-03-07T09:43:05;18.23;;;9.83;;
75941;SDS011;64622;46.220;19.878;2024-03-07T09:45:36;21.37;;;10.00;;
75941;SDS011;64622;46.220;19.878;2024-03-07T09:48:04;18.95;;;10.18;;
75941;SDS011;64622;46.220;19.878;2024-03-07T09:50:32;23.95;;;12.25;;
75941;SDS011;64622;46.220;19.878;2024-03-07T09:52:59;22.67;;;9.88;;
75941;SDS011;64622;46.220;19.878;2024-03-07T09:55:28;21.03;;;10.00;;
75941;SDS011;64622;46.220;19.878;2024-03-07T09:57:55;22.30;;;11.82;;
75941;SDS011;64622;46.220;19.878;2024-03-07T10:00:24;23.02;;;11.32;;
75941;SDS011;64622;46.220;19.878;2024-03-07T10:02:59;26.87;;;11.55;;
75941;SDS011;64622;46.220;19.878;2024-03-07T10:05:31;27.25;;;13.38;;
75941;SDS011;64622;46.220;19.878;2024-03-07T10:07:58;32.80;;;16.07;;
75941;SDS011;64622;46.220;19.878;2024-03-07T10:10:26;30.50;;;14.95;;
75941;SDS011;64622;46.220;19.878;2024-03-07T10:12:52;34.42;;;16.62;;
75941;SDS011;64622;46.220;19.878;2024-03-07T10:15:20;27.70;;;15.55;;
75941;SDS011;64622;46.220;19.878;2024-03-07T10:17:46;26.35;;;13.43;;
75941;SDS011;64622;46.220;19.878;2024-03-07T10:20:12;25.57;;;12.70;;
75941;SDS011;64622;46.220;19.878;2024-03-07T10:22:42;18.35;;;9.98;;
75941;SDS011;64622;46.220;19.878;2024-03-07T10:25:09;22.15;;;11.90;;
75941;SDS011;64622;46.220;19.878;2024-03-07T10:27:37;24.45;;;11.98;;
75941;SDS011;64622;46.220;19.878;2024-03-07T10:30:05;22.02;;;11.07;;
75941;SDS011;64622;46.220;19.878;2024-03-07T10:32:35;24.90;;;12.73;;
75941;SDS011;64622;46.220;19.878;2024-03-07T10:35:06;20.55;;;10.90;;
75941;SDS011;64622;46.220;19.878;2024-03-07T10:37:36;21.33;;;11.45;;
75941;SDS011;64622;46.220;19.878;2024-03-07T10:40:03;23.38;;;11.30;;
75941;SDS011;64622;46.220;19.878;2024-03-07T10:42:51;20.10;;;10.38;;
75941;SDS011;64622;46.220;19.878;2024-03-07T10:45:23;24.13;;;12.60;;
75941;SDS011;64622;46.220;19.878;2024-03-07T10:47:55;27.15;;;13.00;;
75941;SDS011;64622;46.220;19.878;2024-03-07T11:01:49;19.48;;;10.23;;
75941;SDS011;64622;46.220;19.878;2024-03-07T11:04:17;16.30;;;8.75;;
75941;SDS011;64622;46.220;19.878;2024-03-07T11:06:45;18.73;;;9.30;;
75941;SDS011;64622;46.220;19.878;2024-03-07T11:09:11;18.62;;;10.27;;
75941;SDS011;64622;46.220;19.878;2024-03-07T11:11:39;20.87;;;10.50;;
75941;SDS011;64622;46.220;19.878;2024-03-07T11:14:10;19.30;;;9.38;;
75941;SDS011;64622;46.220;19.878;2024-03-07T11:16:39;18.60;;;10.43;;
75941;SDS011;64622;46.220;19.878;2024-03-07T11:19:19;18.17;;;9.25;;
75941;SDS011;64622;46.220;19.878;2024-03-07T11:21:56;17.50;;;10.13;;
75941;SDS011;64622;46.220;19.878;2024-03-07T11:24:29;17.93;;;9.80;;
75941;SDS011;64622;46.220;19.878;2024-03-07T11:27:03;17.75;;;10.50;;
75941;SDS011;64622;46.220;19.878;2024-03-07T11:32:24;16.67;;;9.57;;
75941;SDS011;64622;46.220;19.878;2024-03-07T11:34:50;17.30;;;9.57;;
75941;SDS011;64622;46.220;19.878;2024-03-07T11:37:21;17.93;;;8.40;;
75941;SDS011;64622;46.220;19.878;2024-03-07T11:40:07;19.50;;;9.73;;
75941;SDS011;64622;46.220;19.878;2024-03-07T11:42:35;19.90;;;9.52;;
75941;SDS011;64622;46.220;19.878;2024-03-07T11:45:03;16.33;;;8.90;;
75941;SDS011;64622;46.220;19.878;2024-03-07T11:47:35;18.40;;;9.75;;
75941;SDS011;64622;46.220;19.878;2024-03-07T11:50:07;17.53;;;10.13;;
75941;SDS011;64622;46.220;19.878;2024-03-07T11:52:40;17.52;;;9.40;;
75941;SDS011;64622;46.220;19.878;2024-03-07T11:55:10;16.17;;;8.52;;
75941;SDS011;64622;46.220;19.878;2024-03-07T11:57:38;16.87;;;9.25;;
75941;SDS011;64622;46.220;19.878;2024-03-07T12:00:05;21.92;;;11.43;;
75941;SDS011;64622;46.220;19.878;2024-03-07T12:02:39;20.50;;;10.70;;
75941;SDS011;64622;46.220;19.878;2024-03-07T12:05:07;21.58;;;11.05;;
75941;SDS011;64622;46.220;19.878;2024-03-07T12:07:35;23.87;;;11.93;;
75941;SDS011;64622;46.220;19.878;2024-03-07T12:10:05;17.60;;;9.20;;
75941;SDS011;64622;46.220;19.878;2024-03-07T12:12:33;19.95;;;9.50;;
75941;SDS011;64622;46.220;19.878;2024-03-07T12:15:01;15.10;;;8.10;;
75941;SDS011;64622;46.220;19.878;2024-03-07T12:17:35;22.13;;;11.60;;
75941;SDS011;64622;46.220;19.878;2024-03-07T12:20:04;15.65;;;8.63;;
75941;SDS011;64622;46.220;19.878;2024-03-07T12:22:51;17.67;;;9.32;;
75941;SDS011;64622;46.220;19.878;2024-03-07T12:25:23;19.42;;;10.35;;
75941;SDS011;64622;46.220;19.878;2024-03-07T12:28:03;24.03;;;11.37;;
75941;SDS011;64622;46.220;19.878;2024-03-07T12:33:13;14.73;;;7.90;;
75941;SDS011;64622;46.220;19.878;2024-03-07T12:35:46;22.77;;;11.70;;
75941;SDS011;64622;46.220;19.878;2024-03-07T12:38:16;16.48;;;8.75;;
75941;SDS011;64622;46.220;19.878;2024-03-07T12:40:43;17.17;;;8.70;;
75941;SDS011;64622;46.220;19.878;2024-03-07T12:43:14;18.00;;;8.98;;
75941;SDS011;64622;46.220;19.878;2024-03-07T12:45:47;18.10;;;9.35;;
75941;SDS011;64622;46.220;19.878;2024-03-07T12:48:16;17.87;;;8.80;;
75941;SDS011;64622;46.220;19.878;2024-03-07T12:50:46;18.37;;;10.07;;
75941;SDS011;64622;46.220;19.878;2024-03-07T12:53:20;16.97;;;9.90;;
75941;SDS011;64622;46.220;19.878;2024-03-07T12:55:48;21.15;;;11.02;;
75941;SDS011;64622;46.220;19.878;2024-03-07T12:58:15;18.00;;;9.02;;
75941;SDS011;64622;46.220;19.878;2024-03-07T13:00:42;15.35;;;7.90;;
75941;SDS011;64622;46.220;19.878;2024-03-07T13:03:09;17.80;;;8.80;;
75941;SDS011;64622;46.220;19.878;2024-03-07T13:05:37;17.27;;;8.03;;
75941;SDS011;64622;46.220;19.878;2024-03-07T13:08:09;14.25;;;8.13;;
75941;SDS011;64622;46.220;19.878;2024-03-07T13:10:41;15.85;;;8.45;;
75941;SDS011;64622;46.220;19.878;2024-03-07T13:13:09;17.23;;;8.60;;
75941;SDS011;64622;46.220;19.878;2024-03-07T13:15:37;17.48;;;9.45;;
75941;SDS011;64622;46.220;19.878;2024-03-07T13:18:05;18.10;;;9.40;;
75941;SDS011;64622;46.220;19.878;2024-03-07T13:20:32;14.05;;;7.65;;
75941;SDS011;64622;46.220;19.878;2024-03-07T13:22:59;15.48;;;7.78;;
75941;SDS011;64622;46.220;19.878;2024-03-07T13:25:28;17.08;;;8.15;;
75941;SDS011;64622;46.220;19.878;2024-03-07T13:28:03;15.50;;;8.55;;
75941;SDS011;64622;46.220;19.878;2024-03-07T13:30:50;15.57;;;8.17;;
75941;SDS011;64622;46.220;19.878;2024-03-07T13:33:21;13.60;;;6.50;;
75941;SDS011;64622;46.220;19.878;2024-03-07T13:35:47;22.25;;;11.63;;
75941;SDS011;64622;46.220;19.878;2024-03-07T13:38:15;29.20;;;11.73;;
75941;SDS011;64622;46.220;19.878;2024-03-07T13:40:42;23.65;;;11.27;;
75941;SDS011;64622;46.220;19.878;2024-03-07T13:43:09;21.23;;;11.63;;
75941;SDS011;64622;46.220;19.878;2024-03-07T13:45:36;24.65;;;13.70;;
75941;SDS011;64622;46.220;19.878;2024-03-07T13:48:08;14.80;;;8.10;;
75941;SDS011;64622;46.220;19.878;2024-03-07T13:50:45;13.57;;;7.00;;
75941;SDS011;64622;46.220;19.878;2024-03-07T13:53:15;14.35;;;7.05;;
75941;SDS011;64622;46.220;19.878;2024-03-07T14:07:15;18.52;;;9.52;;
75941;SDS011;64622;46.220;19.878;2024-03-07T14:21:19;12.45;;;5.90;;
75941;SDS011;64622;46.220;19.878;2024-03-07T14:32:54;13.60;;;6.18;;
75941;SDS011;64622;46.220;19.878;2024-03-07T14:38:06;13.57;;;5.83;;
75941;SDS011;64622;46.220;19.878;2024-03-07T14:40:50;15.25;;;7.43;;
75941;SDS011;64622;46.220;19.878;2024-03-07T14:43:18;19.70;;;7.53;;
75941;SDS011;64622;46.220;19.878;2024-03-07T14:45:46;11.85;;;5.37;;
75941;SDS011;64622;46.220;19.878;2024-03-07T14:48:13;12.30;;;5.70;;
75941;SDS011;64622;46.220;19.878;2024-03-07T14:50:44;12.13;;;5.80;;
75941;SDS011;64622;46.220;19.878;2024-03-07T14:53:12;14.45;;;7.35;;
75941;SDS011;64622;46.220;19.878;2024-03-07T14:55:43;13.25;;;5.87;;
75941;SDS011;64622;46.220;19.878;2024-03-07T14:58:10;19.62;;;10.32;;
75941;SDS011;64622;46.220;19.878;2024-03-07T15:00:38;12.05;;;5.65;;
75941;SDS011;64622;46.220;19.878;2024-03-07T15:03:08;12.90;;;5.90;;
75941;SDS011;64622;46.220;19.878;2024-03-07T15:05:38;11.68;;;4.87;;
75941;SDS011;64622;46.220;19.878;2024-03-07T15:08:04;14.25;;;5.00;;
75941;SDS011;64622;46.220;19.878;2024-03-07T15:10:32;12.00;;;4.75;;
75941;SDS011;64622;46.220;19.878;2024-03-07T15:13:01;11.77;;;4.60;;